sensor_id;sensor_type;location;lat;lon;timestamp;P1;durP1;ratioP1;P2;durP2;ratioP2
74347;SDS011;62778;50.406;10.008;2023-01-16T00:00:06;4.50;;;0.83;;
74347;SDS011;62778;50.406;10.008;2023-01-16T00:01:02;5.18;;;1.10;;
74347;SDS011;62778;50.406;10.008;2023-01-16T00:01:58;5.97;;;1.00;;
74347;SDS011;62778;50.406;10.008;2023-01-16T00:02:54;3.90;;;0.85;;
74347;SDS011;62778;50.406;10.008;2023-01-16T00:03:49;5.87;;;1.30;;
74347;SDS011;62778;50.406;10.008;2023-01-16T00:04:45;6.25;;;1.38;;
74347;SDS011;62778;50.406;10.008;2023-01-16T00:05:40;6.17;;;1.10;;
74347;SDS011;62778;50.406;10.008;2023-01-16T00:06:37;4.50;;;1.30;;
74347;SDS011;62778;50.406;10.008;2023-01-16T00:07:32;5.50;;;0.80;;
74347;SDS011;62778;50.406;10.008;2023-01-16T00:08:27;4.73;;;0.90;;
74347;SDS011;62778;50.406;10.008;2023-01-16T00:09:23;3.80;;;0.80;;
74347;SDS011;62778;50.406;10.008;2023-01-16T00:10:18;5.23;;;1.30;;
74347;SDS011;62778;50.406;10.008;2023-01-16T00:11:13;4.20;;;0.80;;
74347;SDS011;62778;50.406;10.008;2023-01-16T00:12:09;5.93;;;1.27;;
74347;SDS011;62778;50.406;10.008;2023-01-16T00:13:04;3.83;;;0.80;;
74347;SDS011;62778;50.406;10.008;2023-01-16T00:14:00;4.50;;;0.70;;
74347;SDS011;62778;50.406;10.008;2023-01-16T00:14:55;5.07;;;0.90;;
74347;SDS011;62778;50.406;10.008;2023-01-16T00:15:51;4.13;;;0.87;;
74347;SDS011;62778;50.406;10.008;2023-01-16T00:16:46;4.43;;;1.00;;
74347;SDS011;62778;50.406;10.008;2023-01-16T00:17:42;3.90;;;0.93;;
74347;SDS011;62778;50.406;10.008;2023-01-16T00:18:37;4.53;;;0.90;;
74347;SDS011;62778;50.406;10.008;2023-01-16T00:19:32;5.07;;;1.00;;
74347;SDS011;62778;50.406;10.008;2023-01-16T00:20:28;5.20;;;0.97;;
74347;SDS011;62778;50.406;10.008;2023-01-16T00:21:23;5.00;;;0.90;;
74347;SDS011;62778;50.406;10.008;2023-01-16T00:22:20;4.47;;;1.13;;
74347;SDS011;62778;50.406;10.008;2023-01-16T00:23:16;4.93;;;1.02;;
74347;SDS011;62778;50.406;10.008;2023-01-16T00:24:11;5.03;;;1.30;;
74347;SDS011;62778;50.406;10.008;2023-01-16T00:25:06;3.90;;;0.93;;
74347;SDS011;62778;50.406;10.008;2023-01-16T00:26:08;4.00;;;1.00;;
74347;SDS011;62778;50.406;10.008;2023-01-16T00:27:04;4.93;;;1.00;;
74347;SDS011;62778;50.406;10.008;2023-01-16T00:27:59;3.95;;;1.10;;
74347;SDS011;62778;50.406;10.008;2023-01-16T00:28:55;4.70;;;0.90;;
74347;SDS011;62778;50.406;10.008;2023-01-16T00:29:50;4.77;;;0.90;;
74347;SDS011;62778;50.406;10.008;2023-01-16T00:30:46;3.70;;;0.90;;
74347;SDS011;62778;50.406;10.008;2023-01-16T00:31:41;4.67;;;0.97;;
74347;SDS011;62778;50.406;10.008;2023-01-16T00:32:36;5.40;;;1.00;;
74347;SDS011;62778;50.406;10.008;2023-01-16T00:33:32;5.30;;;0.70;;
74347;SDS011;62778;50.406;10.008;2023-01-16T00:34:28;4.07;;;0.75;;
74347;SDS011;62778;50.406;10.008;2023-01-16T00:35:23;5.30;;;0.87;;
74347;SDS011;62778;50.406;10.008;2023-01-16T00:36:21;5.07;;;1.00;;
74347;SDS011;62778;50.406;10.008;2023-01-16T00:37:16;4.80;;;1.00;;
74347;SDS011;62778;50.406;10.008;2023-01-16T00:38:11;4.30;;;0.95;;
74347;SDS011;62778;50.406;10.008;2023-01-16T00:39:07;4.00;;;0.87;;
74347;SDS011;62778;50.406;10.008;2023-01-16T00:40:02;4.43;;;1.00;;
74347;SDS011;62778;50.406;10.008;2023-01-16T00:40:58;4.43;;;0.90;;
74347;SDS011;62778;50.406;10.008;2023-01-16T00:41:53;4.60;;;0.90;;
74347;SDS011;62778;50.406;10.008;2023-01-16T00:42:48;4.07;;;0.83;;
74347;SDS011;62778;50.406;10.008;2023-01-16T00:43:44;4.57;;;1.03;;
74347;SDS011;62778;50.406;10.008;2023-01-16T00:44:39;5.53;;;1.10;;
74347;SDS011;62778;50.406;10.008;2023-01-16T00:45:35;4.27;;;0.90;;
74347;SDS011;62778;50.406;10.008;2023-01-16T00:46:30;5.97;;;1.10;;
74347;SDS011;62778;50.406;10.008;2023-01-16T00:47:25;4.60;;;0.70;;
74347;SDS011;62778;50.406;10.008;2023-01-16T00:48:21;4.40;;;0.80;;
74347;SDS011;62778;50.406;10.008;2023-01-16T00:49:16;5.47;;;1.00;;
74347;SDS011;62778;50.406;10.008;2023-01-16T00:50:11;4.27;;;1.10;;
74347;SDS011;62778;50.406;10.008;2023-01-16T00:51:07;5.00;;;0.90;;
74347;SDS011;62778;50.406;10.008;2023-01-16T00:52:02;4.35;;;0.80;;
74347;SDS011;62778;50.406;10.008;2023-01-16T00:52:58;5.97;;;1.00;;
74347;SDS011;62778;50.406;10.008;2023-01-16T00:53:53;4.05;;;0.90;;
74347;SDS011;62778;50.406;10.008;2023-01-16T00:54:48;4.67;;;0.90;;
74347;SDS011;62778;50.406;10.008;2023-01-16T00:55:44;5.97;;;1.20;;
74347;SDS011;62778;50.406;10.008;2023-01-16T00:56:39;5.40;;;1.10;;
74347;SDS011;62778;50.406;10.008;2023-01-16T00:57:35;4.73;;;1.00;;
74347;SDS011;62778;50.406;10.008;2023-01-16T00:58:30;4.50;;;1.00;;
74347;SDS011;62778;50.406;10.008;2023-01-16T00:59:27;4.95;;;0.90;;
74347;SDS011;62778;50.406;10.008;2023-01-16T01:00:22;5.93;;;0.80;;
74347;SDS011;62778;50.406;10.008;2023-01-16T01:01:17;4.90;;;1.10;;
74347;SDS011;62778;50.406;10.008;2023-01-16T01:02:13;4.10;;;0.95;;
74347;SDS011;62778;50.406;10.008;2023-01-16T01:03:08;4.00;;;1.00;;
74347;SDS011;62778;50.406;10.008;2023-01-16T01:04:04;4.67;;;1.00;;
74347;SDS011;62778;50.406;10.008;2023-01-16T01:04:59;4.07;;;1.25;;
74347;SDS011;62778;50.406;10.008;2023-01-16T01:05:54;4.10;;;0.90;;
74347;SDS011;62778;50.406;10.008;2023-01-16T01:06:50;3.50;;;0.87;;
74347;SDS011;62778;50.406;10.008;2023-01-16T01:07:45;3.50;;;0.90;;
74347;SDS011;62778;50.406;10.008;2023-01-16T01:08:40;3.30;;;0.90;;
74347;SDS011;62778;50.406;10.008;2023-01-16T01:09:36;3.83;;;0.75;;
74347;SDS011;62778;50.406;10.008;2023-01-16T01:10:31;3.20;;;0.60;;
74347;SDS011;62778;50.406;10.008;2023-01-16T01:11:27;4.53;;;1.05;;
74347;SDS011;62778;50.406;10.008;2023-01-16T01:12:22;3.30;;;0.90;;
74347;SDS011;62778;50.406;10.008;2023-01-16T01:13:18;5.83;;;1.83;;
74347;SDS011;62778;50.406;10.008;2023-01-16T01:14:13;4.20;;;1.27;;
74347;SDS011;62778;50.406;10.008;2023-01-16T01:15:09;4.05;;;1.05;;
74347;SDS011;62778;50.406;10.008;2023-01-16T01:16:04;3.87;;;1.20;;
74347;SDS011;62778;50.406;10.008;2023-01-16T01:17:00;4.15;;;1.00;;
74347;SDS011;62778;50.406;10.008;2023-01-16T01:17:55;4.27;;;1.07;;
74347;SDS011;62778;50.406;10.008;2023-01-16T01:18:51;4.03;;;1.20;;
74347;SDS011;62778;50.406;10.008;2023-01-16T01:19:46;4.10;;;1.25;;
74347;SDS011;62778;50.406;10.008;2023-01-16T01:20:41;3.63;;;0.97;;
74347;SDS011;62778;50.406;10.008;2023-01-16T01:21:37;4.20;;;1.10;;
74347;SDS011;62778;50.406;10.008;2023-01-16T01:22:32;4.07;;;0.90;;
74347;SDS011;62778;50.406;10.008;2023-01-16T01:23:27;4.83;;;1.17;;
74347;SDS011;62778;50.406;10.008;2023-01-16T01:24:23;4.35;;;1.40;;
74347;SDS011;62778;50.406;10.008;2023-01-16T01:25:18;4.50;;;1.03;;
74347;SDS011;62778;50.406;10.008;2023-01-16T01:26:14;4.37;;;1.17;;
74347;SDS011;62778;50.406;10.008;2023-01-16T01:27:11;5.60;;;1.00;;
74347;SDS011;62778;50.406;10.008;2023-01-16T01:28:06;3.97;;;1.07;;
74347;SDS011;62778;50.406;10.008;2023-01-16T01:29:02;5.23;;;1.00;;
74347;SDS011;62778;50.406;10.008;2023-01-16T01:29:57;4.35;;;0.90;;
74347;SDS011;62778;50.406;10.008;2023-01-16T01:30:53;4.67;;;0.90;;
74347;SDS011;62778;50.406;10.008;2023-01-16T01:31:48;4.65;;;1.02;;
74347;SDS011;62778;50.406;10.008;2023-01-16T01:32:43;5.27;;;1.10;;
74347;SDS011;62778;50.406;10.008;2023-01-16T01:33:39;4.20;;;1.00;;
74347;SDS011;62778;50.406;10.008;2023-01-16T01:34:34;5.20;;;1.00;;
74347;SDS011;62778;50.406;10.008;2023-01-16T01:35:30;6.97;;;1.10;;
74347;SDS011;62778;50.406;10.008;2023-01-16T01:36:25;5.03;;;1.40;;
74347;SDS011;62778;50.406;10.008;2023-01-16T01:37:20;5.10;;;1.23;;
74347;SDS011;62778;50.406;10.008;2023-01-16T01:38:16;5.77;;;0.90;;
74347;SDS011;62778;50.406;10.008;2023-01-16T01:39:11;6.40;;;1.10;;
74347;SDS011;62778;50.406;10.008;2023-01-16T01:40:06;5.20;;;1.20;;
74347;SDS011;62778;50.406;10.008;2023-01-16T01:41:02;5.15;;;1.20;;
74347;SDS011;62778;50.406;10.008;2023-01-16T01:41:58;5.03;;;0.90;;
74347;SDS011;62778;50.406;10.008;2023-01-16T01:43:12;6.10;;;1.20;;
74347;SDS011;62778;50.406;10.008;2023-01-16T01:45:56;5.65;;;1.20;;
74347;SDS011;62778;50.406;10.008;2023-01-16T01:46:51;4.27;;;1.10;;
74347;SDS011;62778;50.406;10.008;2023-01-16T01:47:48;4.68;;;1.10;;
74347;SDS011;62778;50.406;10.008;2023-01-16T01:48:46;5.70;;;1.20;;
74347;SDS011;62778;50.406;10.008;2023-01-16T01:49:43;4.82;;;1.20;;
74347;SDS011;62778;50.406;10.008;2023-01-16T01:51:41;5.78;;;1.10;;
74347;SDS011;62778;50.406;10.008;2023-01-16T01:52:37;5.37;;;1.37;;
74347;SDS011;62778;50.406;10.008;2023-01-16T01:54:41;5.80;;;1.40;;
74347;SDS011;62778;50.406;10.008;2023-01-16T01:55:38;4.38;;;1.30;;
74347;SDS011;62778;50.406;10.008;2023-01-16T01:56:48;5.72;;;1.13;;
74347;SDS011;62778;50.406;10.008;2023-01-16T01:57:56;4.63;;;1.10;;
74347;SDS011;62778;50.406;10.008;2023-01-16T01:58:54;5.07;;;1.20;;
74347;SDS011;62778;50.406;10.008;2023-01-16T01:59:54;5.20;;;1.20;;
74347;SDS011;62778;50.406;10.008;2023-01-16T02:00:54;5.57;;;1.30;;
74347;SDS011;62778;50.406;10.008;2023-01-16T02:01:51;4.72;;;1.20;;
74347;SDS011;62778;50.406;10.008;2023-01-16T02:02:50;5.77;;;1.20;;
74347;SDS011;62778;50.406;10.008;2023-01-16T02:03:51;6.10;;;1.73;;
74347;SDS011;62778;50.406;10.008;2023-01-16T02:04:57;5.38;;;1.45;;
74347;SDS011;62778;50.406;10.008;2023-01-16T02:05:54;7.45;;;1.52;;
74347;SDS011;62778;50.406;10.008;2023-01-16T02:06:51;5.13;;;1.47;;
74347;SDS011;62778;50.406;10.008;2023-01-16T02:07:49;5.65;;;1.20;;
74347;SDS011;62778;50.406;10.008;2023-01-16T02:08:45;7.97;;;1.40;;
74347;SDS011;62778;50.406;10.008;2023-01-16T02:09:41;4.40;;;1.10;;
74347;SDS011;62778;50.406;10.008;2023-01-16T02:10:38;4.57;;;1.10;;
74347;SDS011;62778;50.406;10.008;2023-01-16T02:11:37;4.85;;;1.20;;
74347;SDS011;62778;50.406;10.008;2023-01-16T02:12:35;5.00;;;1.30;;
74347;SDS011;62778;50.406;10.008;2023-01-16T02:13:30;5.13;;;1.30;;
74347;SDS011;62778;50.406;10.008;2023-01-16T02:14:26;4.68;;;1.10;;
74347;SDS011;62778;50.406;10.008;2023-01-16T02:15:23;5.05;;;1.33;;
74347;SDS011;62778;50.406;10.008;2023-01-16T02:16:18;5.40;;;1.23;;
74347;SDS011;62778;50.406;10.008;2023-01-16T02:17:32;4.78;;;1.30;;
74347;SDS011;62778;50.406;10.008;2023-01-16T02:18:46;6.07;;;1.75;;
74347;SDS011;62778;50.406;10.008;2023-01-16T02:20:11;5.13;;;1.23;;
74347;SDS011;62778;50.406;10.008;2023-01-16T02:27:17;5.32;;;1.40;;
74347;SDS011;62778;50.406;10.008;2023-01-16T02:32:10;6.07;;;1.45;;
74347;SDS011;62778;50.406;10.008;2023-01-16T02:33:13;6.17;;;1.37;;
74347;SDS011;62778;50.406;10.008;2023-01-16T02:35:49;4.78;;;1.42;;
74347;SDS011;62778;50.406;10.008;2023-01-16T02:39:25;5.07;;;1.52;;
74347;SDS011;62778;50.406;10.008;2023-01-16T02:40:39;9.32;;;3.13;;
74347;SDS011;62778;50.406;10.008;2023-01-16T02:42:45;8.82;;;3.70;;
74347;SDS011;62778;50.406;10.008;2023-01-16T02:46:14;11.70;;;4.43;;
74347;SDS011;62778;50.406;10.008;2023-01-16T02:47:26;8.60;;;3.08;;
74347;SDS011;62778;50.406;10.008;2023-01-16T02:48:41;11.02;;;3.50;;
74347;SDS011;62778;50.406;10.008;2023-01-16T02:49:41;7.32;;;2.35;;
74347;SDS011;62778;50.406;10.008;2023-01-16T02:50:57;7.05;;;2.50;;
74347;SDS011;62778;50.406;10.008;2023-01-16T02:52:02;8.38;;;2.85;;
74347;SDS011;62778;50.406;10.008;2023-01-16T02:53:02;7.57;;;3.05;;
74347;SDS011;62778;50.406;10.008;2023-01-16T02:54:14;8.23;;;3.20;;
74347;SDS011;62778;50.406;10.008;2023-01-16T02:56:20;8.47;;;3.20;;
74347;SDS011;62778;50.406;10.008;2023-01-16T02:57:19;6.28;;;2.60;;
74347;SDS011;62778;50.406;10.008;2023-01-16T02:58:16;6.43;;;2.78;;
74347;SDS011;62778;50.406;10.008;2023-01-16T02:59:12;5.82;;;2.17;;
74347;SDS011;62778;50.406;10.008;2023-01-16T03:00:08;6.03;;;2.05;;
74347;SDS011;62778;50.406;10.008;2023-01-16T03:01:04;5.90;;;1.80;;
74347;SDS011;62778;50.406;10.008;2023-01-16T03:02:01;5.50;;;1.65;;
74347;SDS011;62778;50.406;10.008;2023-01-16T03:02:57;6.10;;;2.00;;
74347;SDS011;62778;50.406;10.008;2023-01-16T03:04:50;5.50;;;1.60;;
74347;SDS011;62778;50.406;10.008;2023-01-16T03:05:47;5.80;;;1.50;;
74347;SDS011;62778;50.406;10.008;2023-01-16T03:06:45;7.00;;;1.83;;
74347;SDS011;62778;50.406;10.008;2023-01-16T03:10:19;5.95;;;1.48;;
74347;SDS011;62778;50.406;10.008;2023-01-16T03:13:40;4.28;;;1.30;;
74347;SDS011;62778;50.406;10.008;2023-01-16T03:14:53;5.97;;;1.30;;
74347;SDS011;62778;50.406;10.008;2023-01-16T03:17:08;5.70;;;1.33;;
74347;SDS011;62778;50.406;10.008;2023-01-16T03:19:59;7.05;;;1.60;;
74347;SDS011;62778;50.406;10.008;2023-01-16T03:21:13;4.93;;;1.10;;
74347;SDS011;62778;50.406;10.008;2023-01-16T03:22:18;6.35;;;1.40;;
74347;SDS011;62778;50.406;10.008;2023-01-16T03:23:34;4.80;;;1.15;;
74347;SDS011;62778;50.406;10.008;2023-01-16T03:25:48;4.93;;;1.70;;
74347;SDS011;62778;50.406;10.008;2023-01-16T03:26:47;4.22;;;1.02;;
74347;SDS011;62778;50.406;10.008;2023-01-16T03:31:07;5.35;;;1.27;;
74347;SDS011;62778;50.406;10.008;2023-01-16T03:32:09;6.10;;;1.33;;
74347;SDS011;62778;50.406;10.008;2023-01-16T03:33:14;6.22;;;1.35;;
74347;SDS011;62778;50.406;10.008;2023-01-16T03:35:40;5.85;;;1.10;;
74347;SDS011;62778;50.406;10.008;2023-01-16T03:36:40;5.32;;;1.25;;
74347;SDS011;62778;50.406;10.008;2023-01-16T03:37:47;4.85;;;1.10;;
74347;SDS011;62778;50.406;10.008;2023-01-16T03:38:44;4.45;;;1.30;;
74347;SDS011;62778;50.406;10.008;2023-01-16T03:39:43;5.28;;;1.30;;
74347;SDS011;62778;50.406;10.008;2023-01-16T03:40:42;5.03;;;1.20;;
74347;SDS011;62778;50.406;10.008;2023-01-16T03:41:39;5.95;;;1.30;;
74347;SDS011;62778;50.406;10.008;2023-01-16T03:42:37;4.75;;;1.50;;
74347;SDS011;62778;50.406;10.008;2023-01-16T03:43:35;5.05;;;1.30;;
74347;SDS011;62778;50.406;10.008;2023-01-16T03:44:36;5.32;;;1.33;;
74347;SDS011;62778;50.406;10.008;2023-01-16T03:45:37;4.43;;;1.20;;
74347;SDS011;62778;50.406;10.008;2023-01-16T03:46:39;6.53;;;1.60;;
74347;SDS011;62778;50.406;10.008;2023-01-16T03:47:41;5.60;;;1.45;;
74347;SDS011;62778;50.406;10.008;2023-01-16T03:48:41;4.53;;;1.10;;
74347;SDS011;62778;50.406;10.008;2023-01-16T03:49:42;5.43;;;1.10;;
74347;SDS011;62778;50.406;10.008;2023-01-16T03:50:41;5.33;;;1.30;;
74347;SDS011;62778;50.406;10.008;2023-01-16T03:51:41;6.88;;;1.17;;
74347;SDS011;62778;50.406;10.008;2023-01-16T03:52:44;6.53;;;1.38;;
74347;SDS011;62778;50.406;10.008;2023-01-16T03:53:42;5.75;;;1.27;;
74347;SDS011;62778;50.406;10.008;2023-01-16T03:54:42;6.95;;;1.20;;
74347;SDS011;62778;50.406;10.008;2023-01-16T03:55:42;6.32;;;1.23;;
74347;SDS011;62778;50.406;10.008;2023-01-16T03:57:42;6.75;;;1.55;;
74347;SDS011;62778;50.406;10.008;2023-01-16T03:58:43;6.57;;;1.10;;
74347;SDS011;62778;50.406;10.008;2023-01-16T03:59:40;5.85;;;1.52;;
74347;SDS011;62778;50.406;10.008;2023-01-16T04:00:39;5.90;;;1.50;;
74347;SDS011;62778;50.406;10.008;2023-01-16T04:02:44;5.18;;;1.30;;
74347;SDS011;62778;50.406;10.008;2023-01-16T04:03:44;5.38;;;1.80;;
74347;SDS011;62778;50.406;10.008;2023-01-16T04:05:52;6.50;;;1.27;;
74347;SDS011;62778;50.406;10.008;2023-01-16T04:07:04;4.05;;;1.10;;
74347;SDS011;62778;50.406;10.008;2023-01-16T04:08:02;4.82;;;1.13;;
74347;SDS011;62778;50.406;10.008;2023-01-16T04:09:01;5.22;;;1.30;;
74347;SDS011;62778;50.406;10.008;2023-01-16T04:10:02;4.32;;;1.08;;
74347;SDS011;62778;50.406;10.008;2023-01-16T04:10:59;5.00;;;1.00;;
74347;SDS011;62778;50.406;10.008;2023-01-16T04:11:55;5.18;;;0.95;;
74347;SDS011;62778;50.406;10.008;2023-01-16T04:12:56;4.45;;;0.90;;
74347;SDS011;62778;50.406;10.008;2023-01-16T04:13:55;3.97;;;0.80;;
74347;SDS011;62778;50.406;10.008;2023-01-16T04:14:55;5.03;;;1.00;;
74347;SDS011;62778;50.406;10.008;2023-01-16T04:15:53;5.57;;;1.10;;
74347;SDS011;62778;50.406;10.008;2023-01-16T04:16:50;4.40;;;1.10;;
74347;SDS011;62778;50.406;10.008;2023-01-16T04:17:46;4.10;;;0.95;;
74347;SDS011;62778;50.406;10.008;2023-01-16T04:18:41;4.90;;;1.10;;
74347;SDS011;62778;50.406;10.008;2023-01-16T04:19:37;4.00;;;0.80;;
74347;SDS011;62778;50.406;10.008;2023-01-16T04:20:33;4.27;;;1.10;;
74347;SDS011;62778;50.406;10.008;2023-01-16T04:21:29;5.78;;;1.10;;
74347;SDS011;62778;50.406;10.008;2023-01-16T04:22:27;5.65;;;1.15;;
74347;SDS011;62778;50.406;10.008;2023-01-16T04:23:23;5.07;;;1.27;;
74347;SDS011;62778;50.406;10.008;2023-01-16T04:24:18;6.33;;;1.30;;
74347;SDS011;62778;50.406;10.008;2023-01-16T04:25:14;4.07;;;1.00;;
74347;SDS011;62778;50.406;10.008;2023-01-16T04:26:10;4.30;;;1.10;;
74347;SDS011;62778;50.406;10.008;2023-01-16T04:27:05;5.37;;;1.13;;
74347;SDS011;62778;50.406;10.008;2023-01-16T04:28:00;4.30;;;1.00;;
74347;SDS011;62778;50.406;10.008;2023-01-16T04:28:55;4.30;;;1.20;;
74347;SDS011;62778;50.406;10.008;2023-01-16T04:29:51;4.97;;;1.40;;
74347;SDS011;62778;50.406;10.008;2023-01-16T04:30:46;5.18;;;1.30;;
74347;SDS011;62778;50.406;10.008;2023-01-16T04:31:42;6.93;;;1.50;;
74347;SDS011;62778;50.406;10.008;2023-01-16T04:32:37;5.03;;;1.20;;
74347;SDS011;62778;50.406;10.008;2023-01-16T04:33:32;4.63;;;1.10;;
74347;SDS011;62778;50.406;10.008;2023-01-16T04:34:28;4.80;;;1.50;;
74347;SDS011;62778;50.406;10.008;2023-01-16T04:35:23;5.17;;;1.10;;
74347;SDS011;62778;50.406;10.008;2023-01-16T04:36:18;4.97;;;1.00;;
74347;SDS011;62778;50.406;10.008;2023-01-16T04:37:14;5.67;;;1.30;;
74347;SDS011;62778;50.406;10.008;2023-01-16T04:38:10;5.60;;;1.30;;
74347;SDS011;62778;50.406;10.008;2023-01-16T04:39:07;4.70;;;1.27;;
74347;SDS011;62778;50.406;10.008;2023-01-16T04:40:02;4.87;;;1.30;;
74347;SDS011;62778;50.406;10.008;2023-01-16T04:40:58;5.70;;;1.10;;
74347;SDS011;62778;50.406;10.008;2023-01-16T04:41:53;5.70;;;1.50;;
74347;SDS011;62778;50.406;10.008;2023-01-16T04:42:48;4.60;;;0.90;;
74347;SDS011;62778;50.406;10.008;2023-01-16T04:43:43;4.27;;;1.10;;
74347;SDS011;62778;50.406;10.008;2023-01-16T04:44:39;4.93;;;1.40;;
74347;SDS011;62778;50.406;10.008;2023-01-16T04:45:34;4.87;;;1.10;;
74347;SDS011;62778;50.406;10.008;2023-01-16T04:46:29;4.33;;;1.00;;
74347;SDS011;62778;50.406;10.008;2023-01-16T04:47:25;4.83;;;0.90;;
74347;SDS011;62778;50.406;10.008;2023-01-16T04:48:20;5.07;;;0.90;;
74347;SDS011;62778;50.406;10.008;2023-01-16T04:49:16;4.50;;;1.17;;
74347;SDS011;62778;50.406;10.008;2023-01-16T04:50:11;4.03;;;0.80;;
74347;SDS011;62778;50.406;10.008;2023-01-16T04:51:06;6.73;;;1.10;;
74347;SDS011;62778;50.406;10.008;2023-01-16T04:52:04;5.00;;;1.02;;
74347;SDS011;62778;50.406;10.008;2023-01-16T04:52:59;3.85;;;0.90;;
74347;SDS011;62778;50.406;10.008;2023-01-16T04:53:55;4.47;;;0.80;;
74347;SDS011;62778;50.406;10.008;2023-01-16T04:54:50;4.83;;;0.80;;
74347;SDS011;62778;50.406;10.008;2023-01-16T04:55:45;3.33;;;0.77;;
74347;SDS011;62778;50.406;10.008;2023-01-16T04:56:41;4.73;;;0.73;;
74347;SDS011;62778;50.406;10.008;2023-01-16T04:57:36;3.53;;;0.63;;
74347;SDS011;62778;50.406;10.008;2023-01-16T04:58:32;4.13;;;0.70;;
74347;SDS011;62778;50.406;10.008;2023-01-16T04:59:27;4.50;;;0.80;;
74347;SDS011;62778;50.406;10.008;2023-01-16T05:00:22;3.88;;;0.80;;
74347;SDS011;62778;50.406;10.008;2023-01-16T05:01:18;3.87;;;0.60;;
74347;SDS011;62778;50.406;10.008;2023-01-16T05:02:13;4.90;;;0.90;;
74347;SDS011;62778;50.406;10.008;2023-01-16T05:03:08;3.47;;;0.80;;
74347;SDS011;62778;50.406;10.008;2023-01-16T05:04:04;4.47;;;0.80;;
74347;SDS011;62778;50.406;10.008;2023-01-16T05:05:00;4.30;;;1.00;;
74347;SDS011;62778;50.406;10.008;2023-01-16T05:05:55;4.03;;;0.90;;
74347;SDS011;62778;50.406;10.008;2023-01-16T05:06:50;3.90;;;1.00;;
74347;SDS011;62778;50.406;10.008;2023-01-16T05:07:46;3.80;;;0.80;;
74347;SDS011;62778;50.406;10.008;2023-01-16T05:09:01;3.60;;;1.00;;
74347;SDS011;62778;50.406;10.008;2023-01-16T05:09:58;3.65;;;0.80;;
74347;SDS011;62778;50.406;10.008;2023-01-16T05:10:53;3.67;;;0.90;;
74347;SDS011;62778;50.406;10.008;2023-01-16T05:11:49;3.45;;;0.70;;
74347;SDS011;62778;50.406;10.008;2023-01-16T05:12:44;4.60;;;1.00;;
74347;SDS011;62778;50.406;10.008;2023-01-16T05:13:39;4.30;;;1.00;;
74347;SDS011;62778;50.406;10.008;2023-01-16T05:14:35;4.30;;;0.80;;
74347;SDS011;62778;50.406;10.008;2023-01-16T05:15:30;4.45;;;1.00;;
74347;SDS011;62778;50.406;10.008;2023-01-16T05:16:25;3.50;;;0.70;;
74347;SDS011;62778;50.406;10.008;2023-01-16T05:17:21;3.77;;;0.70;;
74347;SDS011;62778;50.406;10.008;2023-01-16T05:18:19;4.68;;;1.10;;
74347;SDS011;62778;50.406;10.008;2023-01-16T05:19:15;4.85;;;1.10;;
74347;SDS011;62778;50.406;10.008;2023-01-16T05:20:10;3.87;;;1.10;;
74347;SDS011;62778;50.406;10.008;2023-01-16T05:21:06;3.83;;;0.80;;
74347;SDS011;62778;50.406;10.008;2023-01-16T05:22:01;5.00;;;0.90;;
74347;SDS011;62778;50.406;10.008;2023-01-16T05:22:56;4.03;;;0.90;;
74347;SDS011;62778;50.406;10.008;2023-01-16T05:23:52;3.77;;;0.77;;
74347;SDS011;62778;50.406;10.008;2023-01-16T05:24:47;5.07;;;1.00;;
74347;SDS011;62778;50.406;10.008;2023-01-16T05:25:42;4.43;;;1.00;;
74347;SDS011;62778;50.406;10.008;2023-01-16T05:26:38;4.85;;;0.90;;
74347;SDS011;62778;50.406;10.008;2023-01-16T05:27:33;6.10;;;1.13;;
74347;SDS011;62778;50.406;10.008;2023-01-16T05:28:28;4.07;;;1.33;;
74347;SDS011;62778;50.406;10.008;2023-01-16T05:29:24;5.53;;;1.17;;
74347;SDS011;62778;50.406;10.008;2023-01-16T05:30:19;4.45;;;1.00;;
74347;SDS011;62778;50.406;10.008;2023-01-16T05:31:14;4.90;;;0.90;;
74347;SDS011;62778;50.406;10.008;2023-01-16T05:32:10;5.57;;;1.10;;
74347;SDS011;62778;50.406;10.008;2023-01-16T05:33:05;5.07;;;1.43;;
74347;SDS011;62778;50.406;10.008;2023-01-16T05:34:01;4.00;;;0.97;;
74347;SDS011;62778;50.406;10.008;2023-01-16T05:34:56;5.53;;;1.27;;
74347;SDS011;62778;50.406;10.008;2023-01-16T05:35:55;4.25;;;0.90;;
74347;SDS011;62778;50.406;10.008;2023-01-16T05:36:51;4.40;;;1.20;;
74347;SDS011;62778;50.406;10.008;2023-01-16T05:37:46;5.43;;;0.87;;
74347;SDS011;62778;50.406;10.008;2023-01-16T05:38:41;6.47;;;1.30;;
74347;SDS011;62778;50.406;10.008;2023-01-16T05:39:36;4.28;;;1.08;;
74347;SDS011;62778;50.406;10.008;2023-01-16T05:40:32;4.97;;;1.00;;
74347;SDS011;62778;50.406;10.008;2023-01-16T05:41:27;4.33;;;1.00;;
74347;SDS011;62778;50.406;10.008;2023-01-16T05:42:23;4.13;;;1.00;;
74347;SDS011;62778;50.406;10.008;2023-01-16T05:43:19;3.70;;;0.93;;
74347;SDS011;62778;50.406;10.008;2023-01-16T05:44:14;6.60;;;1.07;;
74347;SDS011;62778;50.406;10.008;2023-01-16T05:45:10;4.70;;;1.00;;
74347;SDS011;62778;50.406;10.008;2023-01-16T05:46:05;5.30;;;1.10;;
74347;SDS011;62778;50.406;10.008;2023-01-16T05:47:01;4.80;;;0.93;;
74347;SDS011;62778;50.406;10.008;2023-01-16T05:47:56;5.23;;;1.03;;
74347;SDS011;62778;50.406;10.008;2023-01-16T05:48:51;5.28;;;0.82;;
74347;SDS011;62778;50.406;10.008;2023-01-16T05:49:47;4.33;;;1.23;;
74347;SDS011;62778;50.406;10.008;2023-01-16T05:50:42;4.70;;;0.90;;
74347;SDS011;62778;50.406;10.008;2023-01-16T05:51:37;4.57;;;1.07;;
74347;SDS011;62778;50.406;10.008;2023-01-16T05:52:33;4.53;;;0.90;;
74347;SDS011;62778;50.406;10.008;2023-01-16T05:53:28;3.97;;;0.87;;
74347;SDS011;62778;50.406;10.008;2023-01-16T05:54:25;4.35;;;0.82;;
74347;SDS011;62778;50.406;10.008;2023-01-16T05:55:20;5.50;;;1.17;;
74347;SDS011;62778;50.406;10.008;2023-01-16T05:56:16;4.60;;;1.07;;
74347;SDS011;62778;50.406;10.008;2023-01-16T05:57:17;4.35;;;1.25;;
74347;SDS011;62778;50.406;10.008;2023-01-16T05:58:13;4.78;;;1.00;;
74347;SDS011;62778;50.406;10.008;2023-01-16T05:59:09;4.57;;;0.85;;
74347;SDS011;62778;50.406;10.008;2023-01-16T06:00:05;4.60;;;1.10;;
74347;SDS011;62778;50.406;10.008;2023-01-16T06:01:01;5.82;;;1.40;;
74347;SDS011;62778;50.406;10.008;2023-01-16T06:01:57;5.60;;;1.20;;
74347;SDS011;62778;50.406;10.008;2023-01-16T06:02:52;3.65;;;1.02;;
74347;SDS011;62778;50.406;10.008;2023-01-16T06:03:47;4.87;;;1.10;;
74347;SDS011;62778;50.406;10.008;2023-01-16T06:04:43;4.07;;;1.20;;
74347;SDS011;62778;50.406;10.008;2023-01-16T06:05:38;4.77;;;1.03;;
74347;SDS011;62778;50.406;10.008;2023-01-16T06:06:33;4.00;;;1.10;;
74347;SDS011;62778;50.406;10.008;2023-01-16T06:07:29;5.60;;;1.13;;
74347;SDS011;62778;50.406;10.008;2023-01-16T06:08:24;3.87;;;1.00;;
74347;SDS011;62778;50.406;10.008;2023-01-16T06:09:20;4.85;;;1.17;;
74347;SDS011;62778;50.406;10.008;2023-01-16T06:10:15;4.40;;;1.30;;
74347;SDS011;62778;50.406;10.008;2023-01-16T06:11:10;6.03;;;1.53;;
74347;SDS011;62778;50.406;10.008;2023-01-16T06:12:06;5.23;;;1.00;;
74347;SDS011;62778;50.406;10.008;2023-01-16T06:13:04;4.80;;;1.58;;
74347;SDS011;62778;50.406;10.008;2023-01-16T06:14:00;5.73;;;1.80;;
74347;SDS011;62778;50.406;10.008;2023-01-16T06:14:59;6.57;;;2.10;;
74347;SDS011;62778;50.406;10.008;2023-01-16T06:15:54;5.97;;;1.80;;
74347;SDS011;62778;50.406;10.008;2023-01-16T06:16:50;8.60;;;1.60;;
74347;SDS011;62778;50.406;10.008;2023-01-16T06:17:45;5.47;;;1.30;;
74347;SDS011;62778;50.406;10.008;2023-01-16T06:18:41;5.13;;;1.13;;
74347;SDS011;62778;50.406;10.008;2023-01-16T06:19:36;5.75;;;1.25;;
74347;SDS011;62778;50.406;10.008;2023-01-16T06:20:31;4.47;;;1.23;;